Hauptseite
METAR-TAF:

METAR-TAF

Flughäfen :

Flughafen Agen

Agen, Frankreich

Breite: 44-11N, Länge: 000-36E, Höhe: 61 m

Beobachtung

Neuester Wetterbericht von vor 29 Minuten, um 13:00 UTC
Wind 6 kt aus Ost/Südost, variierte zwischen Ost/Nordost und Süd/Südost
Temperatur 35°C
Luftfeuchtigkeit 18%
Luftdruck 1015 hPa
Sichtweite 10 km oder mehr
keine Wolken unter 1500 m und keine Kumulonimbus oder Gewitterwolken

METAR: LFBA 061300Z AUTO 11006KT 070V150 CAVOK 35/07 Q1015 NOSIG

Zeit: 15:29 (13:29 UTC)

Prognose

Neuester Wetterbericht von vor 2 Stunden und 29 Minuten, um 11:00 UTC
Gültige Prognose vom 06 um 12 UTC bis 06 um 21 UTC
Wind 4 kt aus Ost/Südost
Sichtweite 10 km oder mehr
keine Wolken unter 1500 m und keine Kumulonimbus oder Gewitterwolken

TAF: LFBA 061100Z 0612/0621 11004KT CAVOK

Wetterbeobachtungen und Prognosen von mehr als 4000 Flughäfen (METAR und TAF Bericht).

Die verfügbaren Stationen werden durch gelbe und rote Markierungen auf der Karte dargestellt.

Führen Sie die Maus auf sie, um den Namen der Station zu sehen.

Darauf klicken, um die Beobachtung von Wetterbeobachtungen und Prognosen zu sehen.

Um die Karte zu ändern : klicken Sie auf den grünen Tasten mit einem schwarzen Kreuz Zum Vergrößern, auf den grünen Button mit einem Gedankenstrich zu verkleinern, oder auf die grünen Pfeile für benachbarte Karten.


METAR-TAF: